Time;durP1;ratioP1;P1;durP2;ratioP2;P2;SDS_P1;SDS_P2;PMS_P1;PMS_P2;Temp;Humidity;BMP_temperature;BMP_pressure;BME280_temperature;BME280_humidity;BME280_pressure;Samples;Min_cycle;Max_cycle;Signal;HPM_P1;HPM_P2
2022/05/30 00:00:02;;;;;;;8.43;1.00;;;;;;;;;;4969091;28;20031;-76
2022/05/30 00:02:28;;;;;;;6.82;1.10;;;;;;;;;;4971035;28;20516;-77
2022/05/30 00:04:54;;;;;;;2.83;1.05;;;;;;;;;;4972092;28;20542;-76
2022/05/30 00:07:21;;;;;;;4.30;0.85;;;;;;;;;;4972604;28;20037;-76
2022/05/30 00:09:48;;;;;;;5.32;0.90;;;;;;;;;;4972725;28;20027;-76
2022/05/30 00:12:15;;;;;;;2.58;0.77;;;;;;;;;;4972550;28;20037;-75
2022/05/30 00:14:41;;;;;;;2.28;0.70;;;;;;;;;;4972814;28;20023;-76
2022/05/30 00:17:07;;;;;;;5.03;0.85;;;;;;;;;;4972443;28;20038;-76
2022/05/30 00:19:37;;;;;;;6.95;0.73;;;;;;;;;;4971791;28;20310;-76
2022/05/30 00:22:04;;;;;;;1.73;0.70;;;;;;;;;;4972174;28;20395;-76
2022/05/30 00:24:31;;;;;;;1.95;0.80;;;;;;;;;;4972149;28;20500;-76
2022/05/30 00:26:58;;;;;;;3.17;1.02;;;;;;;;;;4973586;28;20504;-76
2022/05/30 00:29:24;;;;;;;3.03;1.00;;;;;;;;;;4976627;28;20026;-76
2022/05/30 00:31:51;;;;;;;1.27;0.80;;;;;;;;;;4976007;28;20164;-76
2022/05/30 00:34:20;;;;;;;2.15;0.70;;;;;;;;;;4975702;28;20035;-76
2022/05/30 00:36:46;;;;;;;5.22;1.00;;;;;;;;;;4975846;28;20027;-75
2022/05/30 00:39:13;;;;;;;5.95;0.95;;;;;;;;;;4976136;28;20041;-76
2022/05/30 00:41:39;;;;;;;1.25;0.73;;;;;;;;;;4976385;28;20025;-75
2022/05/30 00:44:05;;;;;;;3.15;1.10;;;;;;;;;;4975972;28;20031;-76
2022/05/30 00:46:32;;;;;;;1.38;0.75;;;;;;;;;;4975758;28;20046;-75
2022/05/30 00:49:00;;;;;;;3.53;0.85;;;;;;;;;;4975498;28;20033;-75
2022/05/30 00:51:32;;;;;;;2.35;1.00;;;;;;;;;;4976037;28;20037;-76
2022/05/30 00:53:59;;;;;;;5.25;1.02;;;;;;;;;;4976134;28;20023;-76
2022/05/30 00:56:28;;;;;;;2.00;0.85;;;;;;;;;;4976040;28;20039;-75
2022/05/30 00:58:55;;;;;;;5.28;1.00;;;;;;;;;;4975609;28;20029;-76
2022/05/30 01:01:22;;;;;;;2.20;0.80;;;;;;;;;;4986478;28;20035;-76
2022/05/30 01:06:43;;;;;;;3.25;0.80;;;;;;;;;;4960454;28;20028;-76
2022/05/30 01:09:14;;;;;;;5.18;1.10;;;;;;;;;;4974435;28;20403;-76
2022/05/30 01:12:00;;;;;;;3.33;0.90;;;;;;;;;;4975914;28;20034;-76
2022/05/30 01:14:31;;;;;;;2.50;1.00;;;;;;;;;;4975405;28;20023;-76
2022/05/30 01:16:58;;;;;;;2.00;0.70;;;;;;;;;;4974987;28;20043;-76
2022/05/30 01:19:28;;;;;;;3.67;1.08;;;;;;;;;;4975062;28;20027;-76
2022/05/30 01:21:54;;;;;;;6.15;1.02;;;;;;;;;;4975440;28;20018;-76
2022/05/30 01:24:43;;;;;;;3.33;0.77;;;;;;;;;;4975268;28;20025;-76
2022/05/30 01:27:09;;;;;;;4.43;0.90;;;;;;;;;;4964797;28;20046;-76
2022/05/30 01:29:39;;;;;;;4.50;1.05;;;;;;;;;;4971620;28;20476;-75
2022/05/30 01:32:05;;;;;;;3.75;0.88;;;;;;;;;;4970225;28;20514;-76
2022/05/30 01:34:31;;;;;;;3.85;0.93;;;;;;;;;;4970622;28;20027;-76
2022/05/30 01:36:58;;;;;;;4.60;0.85;;;;;;;;;;4970640;28;20035;-75
2022/05/30 01:39:24;;;;;;;5.57;1.08;;;;;;;;;;4973470;28;20030;-76
2022/05/30 01:41:50;;;;;;;3.63;1.00;;;;;;;;;;4970907;28;20081;-76
2022/05/30 01:44:17;;;;;;;3.35;1.00;;;;;;;;;;4970770;28;20039;-75
2022/05/30 01:46:44;;;;;;;1.38;0.80;;;;;;;;;;4970076;28;20035;-76
2022/05/30 01:49:11;;;;;;;1.67;0.80;;;;;;;;;;4974716;28;20021;-75
2022/05/30 01:51:38;;;;;;;2.42;0.90;;;;;;;;;;4974909;28;20041;-76
2022/05/30 01:54:04;;;;;;;6.93;1.08;;;;;;;;;;4974469;28;20027;-76
2022/05/30 01:56:31;;;;;;;2.58;0.95;;;;;;;;;;4974898;28;20484;-75
2022/05/30 01:58:57;;;;;;;8.13;0.88;;;;;;;;;;4974363;28;20407;-76
2022/05/30 02:01:26;;;;;;;4.07;0.60;;;;;;;;;;4974043;28;20019;-75
2022/05/30 02:03:53;;;;;;;2.60;1.00;;;;;;;;;;4974200;28;20419;-76
2022/05/30 02:06:20;;;;;;;3.25;0.80;;;;;;;;;;4974347;28;20029;-75
2022/05/30 02:08:47;;;;;;;4.80;1.25;;;;;;;;;;4970687;28;20037;-75
2022/05/30 02:11:14;;;;;;;2.67;1.10;;;;;;;;;;4974202;28;20035;-76
2022/05/30 02:13:40;;;;;;;3.00;0.90;;;;;;;;;;4969020;28;20033;-75
2022/05/30 02:18:53;;;;;;;1.50;0.90;;;;;;;;;;4970111;28;20027;-75
2022/05/30 02:21:20;;;;;;;1.88;0.80;;;;;;;;;;4974118;28;20026;-76
2022/05/30 02:23:46;;;;;;;2.00;0.90;;;;;;;;;;4970717;28;20034;-76
2022/05/30 02:26:12;;;;;;;2.70;1.02;;;;;;;;;;4969784;28;20034;-76
2022/05/30 02:28:39;;;;;;;1.52;0.82;;;;;;;;;;4974017;28;20027;-75
2022/05/30 02:31:05;;;;;;;6.93;1.25;;;;;;;;;;4973485;28;20404;-76
2022/05/30 02:39:01;;;;;;;4.82;0.82;;;;;;;;;;4971864;28;20031;-76
2022/05/30 02:41:28;;;;;;;4.07;0.93;;;;;;;;;;4973974;28;20042;-75
2022/05/30 02:43:54;;;;;;;2.00;0.93;;;;;;;;;;4973436;28;20027;-76
2022/05/30 02:46:21;;;;;;;2.72;0.95;;;;;;;;;;4968070;28;20069;-76
2022/05/30 02:48:47;;;;;;;5.57;1.20;;;;;;;;;;4969999;28;20175;-76
2022/05/30 02:51:13;;;;;;;2.75;0.90;;;;;;;;;;4972036;28;20015;-76
2022/05/30 02:53:40;;;;;;;4.13;0.90;;;;;;;;;;4969659;28;20037;-75
2022/05/30 02:56:06;;;;;;;1.50;0.80;;;;;;;;;;4968934;28;20431;-76
2022/05/30 02:58:33;;;;;;;2.40;0.80;;;;;;;;;;4971545;28;20407;-75
2022/05/30 03:00:59;;;;;;;2.05;0.90;;;;;;;;;;4969277;28;20030;-75
2022/05/30 03:03:25;;;;;;;3.72;1.20;;;;;;;;;;4972637;28;20027;-76
2022/05/30 03:05:54;;;;;;;2.50;0.93;;;;;;;;;;4968847;28;20031;-75
2022/05/30 03:08:21;;;;;;;4.15;0.90;;;;;;;;;;4973511;28;20033;-76
2022/05/30 03:10:47;;;;;;;3.20;1.05;;;;;;;;;;4973565;28;20030;-75
2022/05/30 03:13:14;;;;;;;1.20;0.73;;;;;;;;;;4972740;28;20019;-76
2022/05/30 03:15:40;;;;;;;2.75;1.10;;;;;;;;;;4973575;28;20034;-75
2022/05/30 03:18:07;;;;;;;4.10;1.02;;;;;;;;;;4972840;28;20518;-76
2022/05/30 03:20:33;;;;;;;2.65;1.00;;;;;;;;;;4973668;28;20030;-75
2022/05/30 03:22:59;;;;;;;1.27;0.80;;;;;;;;;;4973103;28;20384;-75
2022/05/30 03:25:26;;;;;;;4.03;0.90;;;;;;;;;;4972802;28;20018;-76
2022/05/30 03:27:53;;;;;;;2.05;0.98;;;;;;;;;;4972528;28;20022;-76
2022/05/30 03:30:22;;;;;;;1.88;0.80;;;;;;;;;;4972949;28;20034;-76
2022/05/30 03:32:48;;;;;;;4.65;0.90;;;;;;;;;;4969580;28;20595;-76
2022/05/30 03:35:16;;;;;;;3.78;0.98;;;;;;;;;;4972862;28;20035;-76
2022/05/30 03:37:43;;;;;;;3.78;0.85;;;;;;;;;;4972606;28;20405;-76
2022/05/30 03:40:11;;;;;;;1.27;0.70;;;;;;;;;;4972674;28;20062;-76
2022/05/30 03:42:37;;;;;;;1.30;0.88;;;;;;;;;;4972368;28;20019;-76
2022/05/30 03:45:05;;;;;;;5.93;0.90;;;;;;;;;;4972764;28;20034;-76
2022/05/30 03:47:42;;;;;;;2.40;1.13;;;;;;;;;;4971204;28;20047;-76
2022/05/30 03:50:10;;;;;;;2.72;1.13;;;;;;;;;;4972471;28;20415;-75
2022/05/30 03:52:36;;;;;;;4.47;1.08;;;;;;;;;;4972695;28;20023;-75
2022/05/30 03:55:07;;;;;;;6.63;1.00;;;;;;;;;;4972507;28;20029;-76
2022/05/30 03:57:33;;;;;;;2.30;0.95;;;;;;;;;;4972274;28;20023;-76
2022/05/30 04:00:00;;;;;;;2.25;0.93;;;;;;;;;;4972469;28;20492;-76
2022/05/30 04:02:26;;;;;;;4.15;1.10;;;;;;;;;;4976553;28;20407;-77
2022/05/30 04:04:52;;;;;;;3.80;1.38;;;;;;;;;;4978856;28;20023;-75
2022/05/30 04:07:19;;;;;;;7.18;0.90;;;;;;;;;;4979128;28;20037;-76
2022/05/30 04:09:45;;;;;;;2.05;0.98;;;;;;;;;;4978916;28;20025;-76
2022/05/30 04:12:11;;;;;;;4.72;0.90;;;;;;;;;;4978793;28;20027;-75
2022/05/30 04:14:38;;;;;;;2.20;0.82;;;;;;;;;;4979559;28;20034;-76
2022/05/30 04:17:04;;;;;;;9.43;1.10;;;;;;;;;;4978631;28;20039;-75
2022/05/30 04:19:31;;;;;;;2.70;1.15;;;;;;;;;;4978780;28;20015;-76
2022/05/30 04:21:57;;;;;;;6.97;1.25;;;;;;;;;;4978677;28;20021;-76
2022/05/30 04:24:23;;;;;;;2.80;0.95;;;;;;;;;;4978753;28;20514;-76
2022/05/30 04:26:50;;;;;;;9.48;2.13;;;;;;;;;;4977589;28;20037;-76
2022/05/30 04:29:16;;;;;;;3.33;0.95;;;;;;;;;;4974867;28;20034;-76
2022/05/30 04:31:42;;;;;;;4.53;1.23;;;;;;;;;;4974396;28;20089;-75
2022/05/30 04:34:09;;;;;;;2.55;1.00;;;;;;;;;;4974246;28;20396;-75
2022/05/30 04:36:35;;;;;;;3.33;1.25;;;;;;;;;;4976560;28;20525;-75
2022/05/30 04:39:01;;;;;;;2.53;1.10;;;;;;;;;;4975498;28;20041;-76
2022/05/30 04:41:28;;;;;;;3.00;1.00;;;;;;;;;;4973268;28;20026;-76
2022/05/30 04:43:54;;;;;;;6.55;1.20;;;;;;;;;;4974109;28;20035;-76
2022/05/30 04:46:20;;;;;;;1.88;0.90;;;;;;;;;;4974245;28;20483;-76
2022/05/30 04:48:47;;;;;;;2.30;0.93;;;;;;;;;;4975109;28;20035;-75
2022/05/30 04:51:13;;;;;;;2.22;1.05;;;;;;;;;;4978167;28;20045;-76
2022/05/30 04:53:40;;;;;;;2.85;0.90;;;;;;;;;;4974901;28;20388;-75
2022/05/30 04:56:06;;;;;;;4.22;1.10;;;;;;;;;;4973727;28;20026;-76
2022/05/30 04:58:34;;;;;;;3.20;1.10;;;;;;;;;;4973920;28;20027;-76
2022/05/30 05:01:02;;;;;;;4.78;1.05;;;;;;;;;;4974317;28;20024;-76
2022/05/30 05:03:29;;;;;;;2.92;0.85;;;;;;;;;;4978712;28;20041;-76
2022/05/30 05:06:02;;;;;;;6.45;1.30;;;;;;;;;;4978512;28;20038;-76
2022/05/30 05:08:32;;;;;;;4.97;1.20;;;;;;;;;;4974430;28;20394;-76
2022/05/30 05:10:59;;;;;;;7.13;1.13;;;;;;;;;;4975533;28;20037;-76
2022/05/30 05:13:25;;;;;;;1.73;0.90;;;;;;;;;;4976439;28;20030;-76
2022/05/30 05:15:55;;;;;;;2.63;1.00;;;;;;;;;;4975287;28;20030;-76
2022/05/30 05:18:22;;;;;;;8.25;1.50;;;;;;;;;;4960111;28;20399;-76
2022/05/30 05:20:49;;;;;;;8.43;1.10;;;;;;;;;;4971916;28;20061;-76
2022/05/30 05:23:15;;;;;;;6.13;1.10;;;;;;;;;;4974836;28;20026;-76
2022/05/30 05:25:41;;;;;;;7.75;1.83;;;;;;;;;;4975020;28;20027;-76
2022/05/30 05:28:08;;;;;;;3.72;1.13;;;;;;;;;;4974833;28;20046;-76
2022/05/30 05:30:35;;;;;;;7.05;1.20;;;;;;;;;;4974863;28;20112;-76
2022/05/30 05:33:01;;;;;;;6.15;1.02;;;;;;;;;;4975344;28;20037;-76
2022/05/30 05:35:27;;;;;;;4.60;1.05;;;;;;;;;;4975247;28;20501;-76
2022/05/30 05:37:55;;;;;;;2.90;1.10;;;;;;;;;;4974191;28;20492;-75
2022/05/30 05:40:22;;;;;;;2.55;1.08;;;;;;;;;;4974768;28;20035;-75
2022/05/30 05:42:48;;;;;;;4.43;1.00;;;;;;;;;;4974713;28;20081;-76
2022/05/30 05:45:14;;;;;;;2.92;0.95;;;;;;;;;;4974936;28;20011;-76
2022/05/30 05:47:41;;;;;;;2.85;0.90;;;;;;;;;;4975165;28;20408;-76
2022/05/30 05:50:07;;;;;;;5.80;1.52;;;;;;;;;;4974302;28;20457;-76
2022/05/30 05:52:34;;;;;;;4.18;1.20;;;;;;;;;;4974205;28;20019;-76
2022/05/30 05:55:00;;;;;;;4.88;1.05;;;;;;;;;;4972959;28;20399;-76
2022/05/30 05:57:26;;;;;;;3.22;1.00;;;;;;;;;;4974349;28;20031;-76
2022/05/30 05:59:53;;;;;;;7.03;0.98;;;;;;;;;;4974634;28;20085;-76
2022/05/30 06:02:19;;;;;;;2.70;1.20;;;;;;;;;;4974658;28;20022;-76
2022/05/30 06:04:46;;;;;;;5.75;1.10;;;;;;;;;;4974379;28;20031;-76
2022/05/30 06:07:12;;;;;;;5.32;1.17;;;;;;;;;;4973673;28;20049;-76
2022/05/30 06:09:39;;;;;;;1.70;0.90;;;;;;;;;;4974369;28;20027;-76
2022/05/30 06:12:09;;;;;;;3.17;1.17;;;;;;;;;;4969711;28;21475;-74
2022/05/30 06:14:36;;;;;;;3.92;1.15;;;;;;;;;;4972370;28;20015;-75
2022/05/30 06:17:03;;;;;;;5.00;0.93;;;;;;;;;;4969329;28;20047;-74
2022/05/30 06:19:29;;;;;;;5.97;1.27;;;;;;;;;;4973619;28;20026;-75
2022/05/30 06:21:56;;;;;;;5.75;1.08;;;;;;;;;;4972849;28;20035;-75
2022/05/30 06:24:22;;;;;;;5.22;1.30;;;;;;;;;;4973449;28;20104;-74
2022/05/30 06:26:48;;;;;;;2.92;0.90;;;;;;;;;;4974396;28;20052;-75
2022/05/30 06:29:15;;;;;;;8.77;1.15;;;;;;;;;;4973655;28;20038;-76
2022/05/30 06:31:41;;;;;;;4.75;1.30;;;;;;;;;;4971303;28;20499;-76
2022/05/30 06:34:08;;;;;;;2.70;0.98;;;;;;;;;;4969626;28;20034;-75
2022/05/30 06:36:35;;;;;;;2.08;1.10;;;;;;;;;;4972493;28;20031;-75
2022/05/30 06:39:01;;;;;;;5.22;1.00;;;;;;;;;;4973189;28;20033;-75
2022/05/30 06:41:32;;;;;;;8.07;1.35;;;;;;;;;;4973660;28;20030;-74
2022/05/30 06:44:02;;;;;;;2.27;1.10;;;;;;;;;;4972678;28;20039;-74
2022/05/30 06:46:28;;;;;;;5.23;0.90;;;;;;;;;;4969019;28;20822;-75
2022/05/30 06:48:56;;;;;;;3.55;1.30;;;;;;;;;;4972949;28;20031;-76
2022/05/30 06:51:23;;;;;;;3.53;0.90;;;;;;;;;;4973312;28;20027;-75
2022/05/30 06:53:49;;;;;;;4.22;0.73;;;;;;;;;;4973367;28;20025;-75
2022/05/30 06:56:30;;;;;;;3.72;1.27;;;;;;;;;;4972579;28;20034;-76
2022/05/30 06:58:57;;;;;;;10.13;1.17;;;;;;;;;;4968927;28;20484;-75
2022/05/30 07:01:27;;;;;;;3.13;1.05;;;;;;;;;;4973244;28;20038;-75
2022/05/30 07:03:54;;;;;;;6.22;1.13;;;;;;;;;;4972994;28;20026;-76
2022/05/30 07:06:31;;;;;;;2.83;0.98;;;;;;;;;;4972487;28;20492;-76
2022/05/30 07:08:58;;;;;;;4.32;1.13;;;;;;;;;;4970627;28;20385;-76
2022/05/30 07:11:25;;;;;;;1.38;1.00;;;;;;;;;;4969075;28;20602;-76
2022/05/30 07:13:51;;;;;;;2.55;0.90;;;;;;;;;;4968175;28;20518;-76
2022/05/30 07:16:19;;;;;;;2.45;1.27;;;;;;;;;;4970914;28;20030;-76
2022/05/30 07:18:48;;;;;;;4.63;1.10;;;;;;;;;;4971684;28;20029;-76
2022/05/30 07:21:15;;;;;;;3.40;1.17;;;;;;;;;;4969626;28;20050;-76
2022/05/30 07:23:42;;;;;;;7.68;1.02;;;;;;;;;;4977625;28;20033;-76
2022/05/30 07:26:10;;;;;;;3.53;1.05;;;;;;;;;;4968629;28;20503;-76
2022/05/30 07:28:37;;;;;;;3.13;1.00;;;;;;;;;;4966387;28;20045;-77
2022/05/30 07:31:05;;;;;;;5.30;1.30;;;;;;;;;;4967218;28;20026;-76
2022/05/30 07:33:32;;;;;;;2.22;1.13;;;;;;;;;;4970192;28;20077;-76
2022/05/30 07:35:58;;;;;;;3.70;0.93;;;;;;;;;;4966394;28;20023;-75
2022/05/30 07:38:25;;;;;;;3.33;1.17;;;;;;;;;;4966734;28;20031;-73
2022/05/30 07:40:51;;;;;;;6.03;1.25;;;;;;;;;;4967015;28;20031;-76
2022/05/30 07:43:17;;;;;;;2.42;0.85;;;;;;;;;;4968503;28;20031;-76
2022/05/30 07:45:44;;;;;;;11.93;1.63;;;;;;;;;;4971723;28;20042;-76
2022/05/30 07:48:10;;;;;;;3.40;1.15;;;;;;;;;;4985918;28;20755;-75
2022/05/30 07:50:37;;;;;;;3.03;1.23;;;;;;;;;;4975034;28;20502;-76
2022/05/30 07:53:04;;;;;;;5.65;1.45;;;;;;;;;;4968746;28;20045;-76
2022/05/30 07:55:31;;;;;;;5.22;1.10;;;;;;;;;;4972518;28;20026;-75
2022/05/30 07:58:04;;;;;;;5.90;1.42;;;;;;;;;;4971739;28;20035;-76
2022/05/30 08:00:33;;;;;;;3.00;1.20;;;;;;;;;;4970958;28;20026;-75
2022/05/30 08:02:59;;;;;;;5.25;1.20;;;;;;;;;;4973626;28;20389;-76
2022/05/30 08:05:26;;;;;;;2.83;1.15;;;;;;;;;;4970230;28;20025;-76
2022/05/30 08:07:52;;;;;;;4.20;1.30;;;;;;;;;;4966704;28;20050;-76
2022/05/30 08:10:20;;;;;;;7.97;1.10;;;;;;;;;;4967934;28;20034;-76
2022/05/30 08:12:47;;;;;;;2.60;0.95;;;;;;;;;;4971627;28;20400;-76
2022/05/30 08:15:14;;;;;;;2.42;1.05;;;;;;;;;;4970977;28;20507;-76
2022/05/30 08:17:41;;;;;;;8.73;1.48;;;;;;;;;;4970779;28;20407;-76
2022/05/30 08:20:11;;;;;;;7.65;1.20;;;;;;;;;;4971378;28;20045;-76
2022/05/30 08:26:07;;;;;;;10.18;1.60;;;;;;;;;;4964485;28;20585;-75
2022/05/30 08:28:34;;;;;;;6.47;1.50;;;;;;;;;;4966531;28;20034;-76
2022/05/30 08:31:01;;;;;;;4.78;1.30;;;;;;;;;;4970316;28;20030;-76
2022/05/30 08:33:27;;;;;;;6.13;1.33;;;;;;;;;;4970699;28;20023;-76
2022/05/30 08:36:02;;;;;;;4.97;1.15;;;;;;;;;;4971382;28;20060;-76
2022/05/30 08:38:33;;;;;;;3.45;1.60;;;;;;;;;;4967247;28;20043;-75
2022/05/30 08:43:49;;;;;;;2.97;0.93;;;;;;;;;;4967080;28;20031;-76
2022/05/30 08:46:34;;;;;;;4.28;1.02;;;;;;;;;;4968832;28;20027;-76
2022/05/30 08:49:01;;;;;;;3.45;1.30;;;;;;;;;;4971262;28;20027;-76
2022/05/30 08:51:46;;;;;;;3.10;1.02;;;;;;;;;;4971927;28;20042;-76
2022/05/30 08:54:31;;;;;;;4.28;1.25;;;;;;;;;;4973517;28;20050;-76
2022/05/30 08:56:58;;;;;;;4.47;1.02;;;;;;;;;;4973823;28;20042;-75
2022/05/30 08:59:47;;;;;;;3.72;1.17;;;;;;;;;;4977337;28;20033;-76
2022/05/30 09:02:30;;;;;;;3.60;1.15;;;;;;;;;;4969627;28;20047;-76
2022/05/30 09:05:00;;;;;;;4.90;1.50;;;;;;;;;;4972364;28;20027;-76
2022/05/30 09:07:28;;;;;;;3.97;1.50;;;;;;;;;;4967386;28;20027;-76
2022/05/30 09:09:55;;;;;;;5.05;1.02;;;;;;;;;;4970068;28;20621;-76
2022/05/30 09:12:30;;;;;;;2.13;1.15;;;;;;;;;;4974020;28;20447;-75
2022/05/30 09:14:59;;;;;;;3.80;1.05;;;;;;;;;;4971751;28;20030;-75
2022/05/30 09:17:29;;;;;;;2.67;1.00;;;;;;;;;;4971767;28;20037;-76
2022/05/30 09:19:56;;;;;;;2.17;1.02;;;;;;;;;;4972010;28;20037;-75
2022/05/30 09:22:25;;;;;;;3.10;1.08;;;;;;;;;;4971009;28;20034;-75
2022/05/30 09:27:37;;;;;;;3.05;1.10;;;;;;;;;;4972673;28;20508;-76
2022/05/30 09:30:06;;;;;;;2.65;0.90;;;;;;;;;;4971709;28;20037;-76
2022/05/30 09:32:56;;;;;;;3.70;1.33;;;;;;;;;;4972240;28;20033;-75
2022/05/30 09:35:24;;;;;;;2.42;1.05;;;;;;;;;;4970321;28;20038;-76
2022/05/30 09:38:03;;;;;;;1.73;1.00;;;;;;;;;;4973501;28;20046;-76
2022/05/30 09:40:35;;;;;;;5.90;1.00;;;;;;;;;;4973785;28;20404;-76
2022/05/30 09:43:04;;;;;;;2.03;0.73;;;;;;;;;;4973576;28;20077;-76
2022/05/30 09:45:31;;;;;;;2.83;1.02;;;;;;;;;;4971306;28;20031;-76
2022/05/30 09:47:58;;;;;;;3.03;1.10;;;;;;;;;;4973444;28;20053;-75
2022/05/30 09:50:26;;;;;;;2.80;1.00;;;;;;;;;;4969584;28;20054;-76
2022/05/30 09:52:53;;;;;;;3.97;1.35;;;;;;;;;;4970622;28;20457;-76
2022/05/30 09:55:23;;;;;;;3.67;1.00;;;;;;;;;;4968963;28;20492;-76
2022/05/30 09:57:50;;;;;;;3.70;1.17;;;;;;;;;;4969065;28;20039;-76
2022/05/30 10:00:18;;;;;;;2.38;0.98;;;;;;;;;;4972982;28;20035;-76
2022/05/30 10:02:45;;;;;;;2.10;0.93;;;;;;;;;;4973325;28;20033;-77
2022/05/30 10:05:21;;;;;;;3.95;0.90;;;;;;;;;;4967027;28;20038;-76
2022/05/30 10:07:52;;;;;;;2.22;1.20;;;;;;;;;;4968897;28;20031;-76
2022/05/30 10:10:30;;;;;;;11.65;1.05;;;;;;;;;;4968929;28;20324;-76
2022/05/30 10:12:58;;;;;;;4.07;0.73;;;;;;;;;;4968930;28;20031;-77
2022/05/30 10:15:25;;;;;;;2.65;0.90;;;;;;;;;;4970339;28;20035;-76
2022/05/30 10:17:52;;;;;;;3.90;1.20;;;;;;;;;;4969538;28;20041;-76
2022/05/30 10:20:26;;;;;;;3.75;1.17;;;;;;;;;;4968667;28;20075;-76
2022/05/30 10:28:50;;;;;;;4.25;1.20;;;;;;;;;;4968159;28;20031;-76
2022/05/30 10:31:17;;;;;;;4.80;0.93;;;;;;;;;;4968780;28;20023;-76
2022/05/30 10:33:43;;;;;;;6.20;1.13;;;;;;;;;;4969200;28;20109;-76
2022/05/30 10:36:28;;;;;;;5.47;0.93;;;;;;;;;;4971232;28;20037;-76
2022/05/30 10:39:11;;;;;;;3.25;1.30;;;;;;;;;;4969127;28;20529;-76
2022/05/30 10:41:52;;;;;;;2.97;1.02;;;;;;;;;;4968814;28;20023;-76
2022/05/30 10:44:35;;;;;;;2.25;1.00;;;;;;;;;;4975873;28;20030;-76
2022/05/30 10:47:08;;;;;;;6.00;1.13;;;;;;;;;;4969999;28;20051;-76
2022/05/30 10:49:39;;;;;;;1.38;0.82;;;;;;;;;;4972483;28;20477;-76
2022/05/30 10:52:09;;;;;;;3.25;0.90;;;;;;;;;;4972430;28;20036;-76
2022/05/30 10:54:38;;;;;;;3.58;1.25;;;;;;;;;;4971488;28;20025;-76
2022/05/30 10:57:17;;;;;;;5.20;1.02;;;;;;;;;;4970821;28;20106;-76
2022/05/30 10:59:48;;;;;;;1.80;1.02;;;;;;;;;;4972549;28;20031;-76
2022/05/30 11:02:39;;;;;;;3.17;1.00;;;;;;;;;;4971279;28;20396;-76
2022/05/30 11:05:38;;;;;;;4.07;0.98;;;;;;;;;;4971716;28;20035;-76
2022/05/30 11:08:17;;;;;;;2.97;0.95;;;;;;;;;;4969041;28;20046;-76
2022/05/30 11:10:46;;;;;;;3.40;1.13;;;;;;;;;;4957408;28;20037;-76
2022/05/30 11:13:31;;;;;;;4.65;1.00;;;;;;;;;;4969068;28;20037;-76
2022/05/30 11:16:00;;;;;;;7.70;1.15;;;;;;;;;;4965216;28;20037;-75
2022/05/30 11:18:45;;;;;;;4.13;1.33;;;;;;;;;;4969518;28;20039;-76
2022/05/30 11:21:16;;;;;;;4.00;0.98;;;;;;;;;;4969176;28;20412;-76
2022/05/30 11:23:43;;;;;;;5.15;1.15;;;;;;;;;;4965615;28;20508;-76
2022/05/30 11:26:10;;;;;;;7.82;1.30;;;;;;;;;;4968718;28;20045;-75
2022/05/30 11:28:36;;;;;;;6.03;1.00;;;;;;;;;;4965118;28;20405;-76
2022/05/30 11:31:11;;;;;;;4.47;1.13;;;;;;;;;;4969389;28;20514;-75
2022/05/30 11:33:37;;;;;;;3.30;1.17;;;;;;;;;;4966298;28;20042;-76
2022/05/30 11:36:15;;;;;;;4.85;0.88;;;;;;;;;;4952981;28;20099;-76
2022/05/30 11:38:58;;;;;;;4.45;0.90;;;;;;;;;;4961859;28;20457;-74
2022/05/30 11:41:33;;;;;;;6.97;1.27;;;;;;;;;;4955055;28;20042;-75
2022/05/30 11:44:39;;;;;;;7.57;1.30;;;;;;;;;;4969153;28;20154;-76
2022/05/30 11:47:05;;;;;;;5.30;1.40;;;;;;;;;;4973080;28;20059;-75
2022/05/30 11:49:40;;;;;;;6.22;1.00;;;;;;;;;;4974246;28;20621;-75
2022/05/30 11:52:12;;;;;;;5.65;1.13;;;;;;;;;;4979795;28;20218;-76
2022/05/30 11:54:59;;;;;;;5.82;1.10;;;;;;;;;;4984724;28;20053;-76
2022/05/30 11:57:30;;;;;;;2.22;1.20;;;;;;;;;;4880129;29;20076;-76
2022/05/30 12:00:07;;;;;;;2.75;1.10;;;;;;;;;;4896786;29;20550;-76
2022/05/30 12:02:39;;;;;;;2.55;1.13;;;;;;;;;;4892328;29;20037;-76
2022/05/30 12:05:05;;;;;;;4.32;1.20;;;;;;;;;;4896738;29;20053;-76
2022/05/30 12:07:34;;;;;;;3.45;1.10;;;;;;;;;;4896271;29;20083;-75
2022/05/30 12:10:03;;;;;;;3.85;1.20;;;;;;;;;;4892837;29;20575;-76
2022/05/30 12:12:39;;;;;;;3.35;1.20;;;;;;;;;;4906781;29;20036;-76
2022/05/30 12:15:05;;;;;;;2.60;1.40;;;;;;;;;;4907931;29;20044;-76
2022/05/30 12:17:37;;;;;;;3.78;1.23;;;;;;;;;;4905220;29;20052;-76
2022/05/30 12:25:53;;;;;;;3.08;1.20;;;;;;;;;;4914990;29;20028;-77
2022/05/30 12:28:29;;;;;;;3.67;1.02;;;;;;;;;;4914823;29;20048;-76
2022/05/30 12:30:58;;;;;;;4.03;0.98;;;;;;;;;;4915092;29;20028;-76
2022/05/30 12:33:31;;;;;;;4.03;1.27;;;;;;;;;;4917240;28;20059;-77
2022/05/30 12:36:07;;;;;;;4.63;1.10;;;;;;;;;;4974659;28;20056;-77
2022/05/30 12:38:53;;;;;;;2.58;1.05;;;;;;;;;;4972978;28;20030;-76
2022/05/30 12:41:21;;;;;;;2.00;1.30;;;;;;;;;;4974188;28;20406;-76
2022/05/30 12:43:49;;;;;;;2.33;1.00;;;;;;;;;;4974823;28;20027;-76
2022/05/30 12:46:17;;;;;;;1.85;1.17;;;;;;;;;;4974862;28;20023;-76
2022/05/30 12:49:05;;;;;;;3.92;1.10;;;;;;;;;;4974266;28;20423;-76
2022/05/30 12:51:37;;;;;;;1.92;0.95;;;;;;;;;;4960813;28;20033;-76
2022/05/30 12:54:04;;;;;;;3.80;0.98;;;;;;;;;;4974132;28;20039;-75
2022/05/30 12:56:39;;;;;;;2.13;1.00;;;;;;;;;;4974799;28;20369;-75
2022/05/30 12:59:05;;;;;;;1.35;0.90;;;;;;;;;;4973703;28;20041;-75
2022/05/30 13:01:44;;;;;;;1.80;0.93;;;;;;;;;;4968938;28;20027;-75
2022/05/30 13:04:21;;;;;;;2.63;1.10;;;;;;;;;;4969584;28;20403;-75
2022/05/30 13:06:57;;;;;;;1.67;0.75;;;;;;;;;;4970903;28;20027;-75
2022/05/30 13:09:24;;;;;;;1.13;0.77;;;;;;;;;;4958554;28;20027;-75
2022/05/30 13:12:09;;;;;;;6.93;1.25;;;;;;;;;;4974523;28;20018;-75
2022/05/30 13:14:40;;;;;;;3.40;1.10;;;;;;;;;;4972310;28;20030;-75
2022/05/30 13:17:24;;;;;;;4.35;1.00;;;;;;;;;;4973741;28;20042;-75
2022/05/30 13:19:56;;;;;;;3.00;1.10;;;;;;;;;;4974087;28;20037;-75
2022/05/30 13:22:34;;;;;;;4.38;0.98;;;;;;;;;;4968318;28;20020;-74
2022/05/30 13:25:01;;;;;;;1.63;0.98;;;;;;;;;;4973837;28;20504;-75
2022/05/30 13:27:28;;;;;;;4.88;1.08;;;;;;;;;;4974150;28;20035;-74
2022/05/30 13:29:54;;;;;;;3.22;1.20;;;;;;;;;;4974126;28;20472;-74
2022/05/30 13:32:22;;;;;;;4.40;0.85;;;;;;;;;;4973963;28;20041;-75
2022/05/30 13:34:53;;;;;;;4.68;1.15;;;;;;;;;;4972267;28;20465;-75
2022/05/30 13:37:26;;;;;;;19.92;2.05;;;;;;;;;;4972992;28;20092;-75
2022/05/30 13:39:54;;;;;;;2.35;0.80;;;;;;;;;;4973519;28;20037;-75
2022/05/30 13:42:20;;;;;;;4.90;1.13;;;;;;;;;;4958453;28;20034;-75
2022/05/30 13:44:47;;;;;;;3.22;1.00;;;;;;;;;;4974121;28;20031;-76
2022/05/30 13:47:15;;;;;;;3.88;0.82;;;;;;;;;;4969281;28;20046;-75
2022/05/30 13:49:42;;;;;;;3.63;1.17;;;;;;;;;;4973406;28;20041;-75
2022/05/30 13:52:30;;;;;;;4.50;1.10;;;;;;;;;;4967664;28;20026;-75
2022/05/30 13:54:58;;;;;;;5.50;1.10;;;;;;;;;;4969551;28;20489;-75
2022/05/30 13:57:27;;;;;;;2.92;1.00;;;;;;;;;;4972779;28;20447;-75
2022/05/30 13:59:54;;;;;;;2.63;0.80;;;;;;;;;;4977895;28;20020;-75
2022/05/30 14:02:26;;;;;;;5.85;1.05;;;;;;;;;;4973228;28;20044;-75
2022/05/30 14:04:59;;;;;;;3.88;1.05;;;;;;;;;;4972481;28;20080;-76
2022/05/30 14:07:26;;;;;;;5.72;1.00;;;;;;;;;;4972875;28;20413;-74
2022/05/30 14:09:54;;;;;;;2.03;1.00;;;;;;;;;;4972868;28;20029;-75
2022/05/30 14:12:22;;;;;;;2.70;0.80;;;;;;;;;;4957700;28;20026;-74
2022/05/30 14:14:49;;;;;;;3.60;1.13;;;;;;;;;;4972730;28;20030;-75
2022/05/30 14:17:29;;;;;;;5.22;1.00;;;;;;;;;;4969507;28;20514;-74
2022/05/30 14:20:12;;;;;;;3.67;0.80;;;;;;;;;;4969404;28;20034;-74
2022/05/30 14:22:39;;;;;;;1.85;0.80;;;;;;;;;;4968053;28;20027;-74
2022/05/30 14:25:09;;;;;;;3.80;0.90;;;;;;;;;;4970030;28;20037;-75
2022/05/30 14:27:36;;;;;;;2.90;0.93;;;;;;;;;;4970625;28;20015;-74
2022/05/30 14:30:08;;;;;;;1.50;0.80;;;;;;;;;;4970306;28;20516;-75
2022/05/30 14:32:36;;;;;;;2.10;0.80;;;;;;;;;;4970760;28;20027;-74
2022/05/30 14:35:04;;;;;;;2.40;1.02;;;;;;;;;;4969227;28;20038;-75
2022/05/30 14:37:33;;;;;;;1.98;0.90;;;;;;;;;;4969435;28;20042;-74
2022/05/30 14:40:01;;;;;;;3.85;0.98;;;;;;;;;;4970486;28;20027;-75
2022/05/30 14:42:33;;;;;;;3.33;0.98;;;;;;;;;;4971072;28;20026;-75
2022/05/30 14:45:15;;;;;;;4.25;0.93;;;;;;;;;;4972817;28;20041;-74
2022/05/30 14:47:43;;;;;;;2.45;1.00;;;;;;;;;;4970073;28;20043;-75
2022/05/30 14:50:20;;;;;;;6.38;1.13;;;;;;;;;;4970974;28;20029;-75
2022/05/30 14:52:49;;;;;;;3.97;0.77;;;;;;;;;;4971022;28;20038;-75
2022/05/30 14:55:19;;;;;;;3.25;1.00;;;;;;;;;;4972076;28;20035;-75
2022/05/30 14:57:50;;;;;;;4.03;1.10;;;;;;;;;;4971805;28;20050;-75
2022/05/30 15:00:26;;;;;;;6.57;1.00;;;;;;;;;;4972335;28;20046;-75
2022/05/30 15:05:37;;;;;;;4.97;1.00;;;;;;;;;;4970988;28;20030;-76
2022/05/30 15:08:04;;;;;;;0.88;0.57;;;;;;;;;;4971246;28;20404;-75
2022/05/30 15:10:30;;;;;;;5.00;1.00;;;;;;;;;;4967862;28;20029;-76
2022/05/30 15:12:57;;;;;;;3.67;0.90;;;;;;;;;;4971771;28;20507;-76
2022/05/30 15:15:24;;;;;;;4.80;0.77;;;;;;;;;;4971262;28;20022;-75
2022/05/30 15:17:50;;;;;;;1.35;0.68;;;;;;;;;;4968230;28;20480;-76
2022/05/30 15:20:18;;;;;;;2.70;1.10;;;;;;;;;;4968650;28;20037;-75
2022/05/30 15:22:45;;;;;;;8.50;1.10;;;;;;;;;;4971751;28;20048;-75
2022/05/30 15:25:11;;;;;;;4.22;0.90;;;;;;;;;;4968168;28;20523;-75
2022/05/30 15:27:38;;;;;;;3.80;0.90;;;;;;;;;;4971507;28;20403;-76
2022/05/30 15:30:06;;;;;;;4.53;0.98;;;;;;;;;;4972949;28;20046;-75